createdAt,value
2017-12-24T00:01:56.667Z,28.70
2017-12-24T00:04:24.248Z,28.20
2017-12-24T00:06:51.892Z,31.07
2017-12-24T00:09:19.495Z,28.87
2017-12-24T00:11:47.100Z,28.57
2017-12-24T00:14:14.765Z,27.77
2017-12-24T00:16:42.353Z,27.67
2017-12-24T00:19:09.948Z,28.07
2017-12-24T00:21:37.573Z,28.23
2017-12-24T00:24:05.539Z,28.20
2017-12-24T00:26:33.164Z,29.60
2017-12-24T00:29:00.762Z,28.93
2017-12-24T00:31:28.376Z,29.57
2017-12-24T00:33:56.279Z,27.50
2017-12-24T00:36:24.133Z,25.90
2017-12-24T00:38:51.728Z,28.30
2017-12-24T00:41:19.357Z,26.60
2017-12-24T00:43:46.935Z,27.87
2017-12-24T00:46:14.519Z,29.10
2017-12-24T00:48:42.153Z,30.90
2017-12-24T00:51:09.731Z,27.43
2017-12-24T00:53:37.575Z,28.70
2017-12-24T00:56:05.220Z,27.13
2017-12-24T00:58:32.812Z,29.37
2017-12-24T01:01:00.380Z,28.67
2017-12-24T01:03:28.003Z,27.90
2017-12-24T01:05:55.596Z,28.20
2017-12-24T01:08:23.246Z,26.80
2017-12-24T01:10:50.860Z,28.70
2017-12-24T01:13:18.484Z,27.33
2017-12-24T01:15:46.438Z,26.40
2017-12-24T01:18:14.031Z,26.50
2017-12-24T01:20:41.656Z,26.70
2017-12-24T01:23:09.246Z,27.40
2017-12-24T01:25:36.836Z,28.00
2017-12-24T01:28:04.750Z,25.80
2017-12-24T01:30:32.623Z,25.50
2017-12-24T01:33:00.255Z,24.40
2017-12-24T01:35:27.841Z,25.10
2017-12-24T01:37:55.449Z,25.67
2017-12-24T01:40:23.065Z,24.10
2017-12-24T01:42:50.693Z,24.73
2017-12-24T01:45:18.315Z,23.47
2017-12-24T01:47:51.784Z,23.03
2017-12-24T01:50:19.434Z,22.10
2017-12-24T01:52:47.039Z,24.90
2017-12-24T01:55:14.650Z,23.10
2017-12-24T01:57:42.276Z,24.13
2017-12-24T02:00:09.870Z,21.90
2017-12-24T02:02:37.500Z,24.50
2017-12-24T02:05:05.101Z,22.10
2017-12-24T02:07:32.688Z,23.33
2017-12-24T02:10:00.312Z,22.73
2017-12-24T02:12:28.216Z,22.30
2017-12-24T02:14:55.849Z,22.63
2017-12-24T02:17:23.456Z,23.43
2017-12-24T02:19:51.062Z,23.93
2017-12-24T02:22:18.686Z,23.33
2017-12-24T02:24:46.276Z,23.27
2017-12-24T02:27:14.193Z,23.43
2017-12-24T02:29:41.803Z,22.00
2017-12-24T02:32:09.401Z,22.60
2017-12-24T02:34:37.024Z,22.43
2017-12-24T02:37:04.634Z,22.37
2017-12-24T02:39:32.258Z,22.73
2017-12-24T02:41:59.891Z,23.23
2017-12-24T02:44:27.474Z,22.10
2017-12-24T02:46:55.100Z,22.20
2017-12-24T02:49:22.693Z,24.40
2017-12-24T02:51:50.621Z,22.10
2017-12-24T02:54:18.477Z,24.13
2017-12-24T02:56:46.363Z,22.67
2017-12-24T02:59:13.984Z,23.80
2017-12-24T03:01:41.599Z,23.93
2017-12-24T03:04:09.261Z,24.50
2017-12-24T03:06:36.894Z,23.00
2017-12-24T03:09:04.481Z,23.87
2017-12-24T03:11:32.112Z,24.60
2017-12-24T03:13:59.694Z,24.03
2017-12-24T03:16:27.312Z,24.20
2017-12-24T03:18:54.908Z,24.17
2017-12-24T03:21:22.500Z,24.00
2017-12-24T03:23:50.142Z,22.53
2017-12-24T03:26:17.755Z,23.20
2017-12-24T03:28:45.380Z,24.77
2017-12-24T03:31:12.965Z,24.60
2017-12-24T03:33:40.567Z,23.70
2017-12-24T03:36:08.169Z,24.13
2017-12-24T03:38:36.027Z,24.27
2017-12-24T03:41:03.993Z,22.63
2017-12-24T03:43:31.965Z,23.10
2017-12-24T03:45:59.546Z,23.87
2017-12-24T03:48:27.170Z,23.70
2017-12-24T03:50:54.765Z,21.90
2017-12-24T03:53:22.429Z,22.10
2017-12-24T03:55:50.033Z,22.00
2017-12-24T03:58:17.626Z,22.80
2017-12-24T04:00:45.247Z,23.30
2017-12-24T04:03:13.155Z,22.00
2017-12-24T04:05:40.783Z,22.13
2017-12-24T04:08:08.400Z,21.90
2017-12-24T04:10:36.007Z,23.07
2017-12-24T04:13:03.622Z,22.07
2017-12-24T04:15:31.224Z,21.40
2017-12-24T04:17:58.852Z,20.60
2017-12-24T04:20:26.805Z,21.33
2017-12-24T04:22:54.669Z,21.70
2017-12-24T04:25:22.293Z,22.33
2017-12-24T04:27:50.200Z,21.80
2017-12-24T04:30:17.841Z,22.23
2017-12-24T04:32:45.514Z,21.13
2017-12-24T04:35:13.109Z,20.93
2017-12-24T04:37:40.723Z,22.43
2017-12-24T04:40:08.301Z,21.17
2017-12-24T04:42:35.929Z,22.03
2017-12-24T04:45:03.525Z,23.00
2017-12-24T04:47:31.133Z,22.30
2017-12-24T04:49:58.756Z,22.30
2017-12-24T04:52:26.348Z,21.80
2017-12-24T04:54:53.986Z,22.23
2017-12-24T04:57:21.587Z,22.00
2017-12-24T04:59:49.170Z,21.90
2017-12-24T05:02:17.072Z,22.13
2017-12-24T05:04:44.666Z,23.00
2017-12-24T05:07:12.297Z,22.97
2017-12-24T05:09:39.895Z,22.37
2017-12-24T05:12:07.481Z,23.83
2017-12-24T05:14:35.389Z,24.10
2017-12-24T05:17:02.976Z,23.20
2017-12-24T05:19:30.601Z,23.43
2017-12-24T05:21:58.263Z,23.27
2017-12-24T05:24:25.869Z,26.60
2017-12-24T05:26:53.505Z,23.87
2017-12-24T05:29:21.100Z,24.30
2017-12-24T05:31:48.728Z,22.20
2017-12-24T05:34:16.328Z,24.60
2017-12-24T05:36:43.908Z,23.67
2017-12-24T05:39:11.554Z,24.07
2017-12-24T05:41:39.204Z,23.50
2017-12-24T05:44:06.837Z,23.60
2017-12-24T05:46:34.433Z,24.37
2017-12-24T05:49:02.074Z,23.10
2017-12-24T05:51:29.751Z,23.70
2017-12-24T05:53:57.336Z,24.37
2017-12-24T05:56:24.972Z,26.23
2017-12-24T05:58:52.559Z,24.50
2017-12-24T06:01:20.486Z,23.87
2017-12-24T06:03:48.953Z,24.00
2017-12-24T06:06:16.843Z,24.17
2017-12-24T06:08:44.476Z,25.67
2017-12-24T06:11:12.104Z,24.07
2017-12-24T06:13:40.339Z,24.53
2017-12-24T06:16:07.955Z,27.13
2017-12-24T06:18:35.542Z,25.10
2017-12-24T06:21:03.211Z,23.90
2017-12-24T06:23:31.116Z,24.40
2017-12-24T06:25:58.706Z,24.13
2017-12-24T06:28:26.323Z,23.13
2017-12-24T06:30:53.908Z,24.37
2017-12-24T06:33:21.547Z,24.40
2017-12-24T06:35:49.405Z,23.90
2017-12-24T06:38:16.999Z,26.23
2017-12-24T06:40:44.933Z,24.17
2017-12-24T06:43:12.540Z,23.03
2017-12-24T06:45:40.184Z,22.93
2017-12-24T06:48:07.806Z,24.40
2017-12-24T06:50:35.687Z,25.13
2017-12-24T06:53:03.341Z,25.10
2017-12-24T06:55:30.937Z,24.37
2017-12-24T06:57:58.572Z,25.67
2017-12-24T07:00:26.181Z,24.20
2017-12-24T07:02:53.796Z,23.40
2017-12-24T07:05:21.443Z,23.90
2017-12-24T07:07:49.044Z,24.93
2017-12-24T07:10:16.675Z,22.87
2017-12-24T07:12:44.555Z,23.80
2017-12-24T07:15:12.152Z,24.70
2017-12-24T07:17:40.081Z,23.17
2017-12-24T07:20:07.668Z,24.03
2017-12-24T07:22:35.299Z,24.40
2017-12-24T07:25:02.906Z,22.93
2017-12-24T07:27:30.516Z,22.97
2017-12-24T07:29:58.155Z,24.77
2017-12-24T07:32:26.069Z,25.60
2017-12-24T07:34:53.728Z,25.43
2017-12-24T07:37:21.327Z,26.07
2017-12-24T07:39:48.925Z,24.90
2017-12-24T07:42:16.548Z,24.20
2017-12-24T07:44:44.139Z,23.70
2017-12-24T07:47:11.792Z,24.30
2017-12-24T07:49:39.387Z,24.80
2017-12-24T07:52:07.264Z,24.57
2017-12-24T07:54:34.880Z,24.00
2017-12-24T07:57:02.476Z,25.03
2017-12-24T07:59:30.067Z,23.73
2017-12-24T08:01:57.685Z,24.67
2017-12-24T08:04:25.582Z,23.87
2017-12-24T08:06:53.449Z,23.63
2017-12-24T08:09:21.087Z,23.10
2017-12-24T08:11:48.696Z,23.20
2017-12-24T08:14:16.288Z,23.23
2017-12-24T08:16:43.916Z,22.20
2017-12-24T08:19:11.508Z,24.87
2017-12-24T08:21:39.097Z,25.30
2017-12-24T08:24:06.719Z,24.67
2017-12-24T08:26:34.308Z,23.00
2017-12-24T08:29:01.951Z,25.43
2017-12-24T08:31:29.544Z,24.13
2017-12-24T08:33:57.131Z,24.53
2017-12-24T08:36:24.752Z,23.40
2017-12-24T08:38:52.340Z,23.43
2017-12-24T08:41:19.974Z,24.77
2017-12-24T08:43:47.882Z,25.20
2017-12-24T08:46:15.502Z,24.20
2017-12-24T08:48:43.122Z,24.60
2017-12-24T08:51:10.714Z,25.40
2017-12-24T08:53:38.402Z,25.20
2017-12-24T08:56:06.010Z,25.07
2017-12-24T08:58:33.700Z,24.43
2017-12-24T09:01:01.333Z,26.40
2017-12-24T09:03:29.300Z,24.20
2017-12-24T09:05:57.269Z,25.40
2017-12-24T09:08:24.882Z,25.20
2017-12-24T09:10:52.468Z,26.47
2017-12-24T09:13:20.071Z,25.70
2017-12-24T09:15:47.715Z,25.57
2017-12-24T09:18:15.367Z,25.57
2017-12-24T09:20:42.953Z,25.10
2017-12-24T09:23:10.544Z,24.90
2017-12-24T09:25:38.168Z,25.57
2017-12-24T09:28:05.818Z,26.03
2017-12-24T09:30:33.460Z,24.53
2017-12-24T09:33:01.099Z,23.90
2017-12-24T09:35:28.712Z,26.70
2017-12-24T09:37:56.678Z,25.33
2017-12-24T09:40:24.544Z,24.30
2017-12-24T09:42:52.193Z,24.37
2017-12-24T09:45:20.077Z,23.83
2017-12-24T09:47:47.655Z,23.77
2017-12-24T09:50:15.609Z,25.17
2017-12-24T09:52:43.200Z,22.80
2017-12-24T09:55:10.825Z,23.30
2017-12-24T09:57:38.416Z,25.10
2017-12-24T10:00:06.006Z,25.27
2017-12-24T10:02:33.636Z,25.53
2017-12-24T10:05:01.480Z,24.77
2017-12-24T10:07:29.116Z,23.87
2017-12-24T10:09:56.723Z,25.20
2017-12-24T10:12:24.564Z,24.70
2017-12-24T10:14:52.230Z,24.20
2017-12-24T10:17:19.844Z,22.17
2017-12-24T10:19:47.503Z,22.53
2017-12-24T10:22:15.146Z,24.87
2017-12-24T10:24:42.748Z,24.50
2017-12-24T10:27:10.777Z,23.87
2017-12-24T10:29:38.379Z,23.57
2017-12-24T10:32:06.011Z,24.03
2017-12-24T10:34:33.660Z,23.93
2017-12-24T10:37:01.300Z,24.17
2017-12-24T10:39:28.923Z,22.90
2017-12-24T10:41:56.525Z,21.93
2017-12-24T10:44:24.158Z,22.07
2017-12-24T10:46:51.750Z,22.30
2017-12-24T10:49:19.627Z,22.93
2017-12-24T10:51:47.248Z,23.07
2017-12-24T10:54:14.917Z,22.13
2017-12-24T10:56:42.562Z,23.77
2017-12-24T10:59:10.163Z,23.70
2017-12-24T11:01:37.779Z,21.60
2017-12-24T11:04:05.641Z,22.67
2017-12-24T11:06:33.241Z,24.20
2017-12-24T11:09:00.904Z,21.80
2017-12-24T11:11:28.521Z,23.20
2017-12-24T11:13:56.147Z,22.33
2017-12-24T11:16:23.813Z,24.00
2017-12-24T11:18:51.409Z,22.23
2017-12-24T11:21:19.045Z,22.67
2017-12-24T11:23:46.652Z,22.20
2017-12-24T11:26:14.247Z,22.23
2017-12-24T11:28:41.872Z,22.73
2017-12-24T11:31:09.505Z,21.97
2017-12-24T11:33:37.152Z,21.93
2017-12-24T11:36:04.749Z,21.73
2017-12-24T11:38:32.686Z,22.20
2017-12-24T11:41:00.299Z,24.13
2017-12-24T11:43:28.235Z,20.53
2017-12-24T11:45:55.865Z,22.57
2017-12-24T11:48:23.450Z,21.90
2017-12-24T11:50:51.045Z,22.03
2017-12-24T11:53:18.790Z,22.33
2017-12-24T11:55:46.401Z,22.97
2017-12-24T11:58:14.072Z,20.23
2017-12-24T12:00:41.704Z,21.20
2017-12-24T12:03:09.316Z,22.00
2017-12-24T12:05:36.975Z,20.90
2017-12-24T12:08:04.588Z,20.50
2017-12-24T12:10:32.280Z,20.73
2017-12-24T12:12:59.880Z,21.67
2017-12-24T12:15:27.556Z,21.37
2017-12-24T12:17:55.257Z,21.03
2017-12-24T12:20:22.855Z,21.67
2017-12-24T12:22:50.524Z,20.47
2017-12-24T12:25:18.248Z,20.17
2017-12-24T12:27:45.877Z,20.57
2017-12-24T12:30:13.491Z,20.10
2017-12-24T12:32:41.128Z,20.67
2017-12-24T12:35:08.759Z,19.70
2017-12-24T12:37:36.374Z,20.60
2017-12-24T12:40:03.959Z,20.67
2017-12-24T12:42:31.933Z,19.40
2017-12-24T12:44:59.571Z,20.67
2017-12-24T12:47:27.190Z,19.80
2017-12-24T12:49:54.795Z,19.73
2017-12-24T12:52:22.393Z,20.97
2017-12-24T12:54:50.033Z,20.73
2017-12-24T12:57:17.672Z,19.20
2017-12-24T12:59:45.338Z,19.83
2017-12-24T13:02:12.924Z,20.50
2017-12-24T13:04:40.549Z,19.43
2017-12-24T13:07:08.192Z,19.70
2017-12-24T13:09:35.804Z,19.43
2017-12-24T13:12:03.537Z,19.90
2017-12-24T13:14:31.444Z,19.03
2017-12-24T13:16:59.064Z,18.53
2017-12-24T13:19:26.727Z,18.70
2017-12-24T13:21:54.321Z,18.53
2017-12-24T13:24:22.009Z,19.40
2017-12-24T13:26:49.607Z,18.00
2017-12-24T13:29:17.222Z,17.90
2017-12-24T13:31:44.849Z,18.10
2017-12-24T13:34:12.490Z,18.53
2017-12-24T13:36:40.455Z,18.50
2017-12-24T13:39:08.056Z,17.70
2017-12-24T13:41:35.682Z,18.47
2017-12-24T13:44:03.344Z,18.00
2017-12-24T13:46:30.961Z,17.20
2017-12-24T13:48:58.587Z,17.97
2017-12-24T13:51:26.180Z,17.67
2017-12-24T13:53:53.787Z,17.20
2017-12-24T13:56:21.414Z,17.10
2017-12-24T13:58:49.005Z,16.87
2017-12-24T14:01:16.665Z,17.00
2017-12-24T14:03:44.505Z,16.90
2017-12-24T14:06:12.128Z,18.07
2017-12-24T14:08:39.767Z,16.70
2017-12-24T14:11:07.362Z,15.97
2017-12-24T14:13:35.005Z,16.40
2017-12-24T14:16:02.637Z,16.40
2017-12-24T14:18:30.233Z,17.03
2017-12-24T14:20:57.916Z,16.20
2017-12-24T14:23:25.532Z,16.30
2017-12-24T14:25:53.214Z,15.90
2017-12-24T14:28:21.149Z,15.93
2017-12-24T14:30:48.750Z,16.07
2017-12-24T14:33:16.392Z,15.60
2017-12-24T14:35:44.031Z,16.03
2017-12-24T14:38:11.643Z,16.03
2017-12-24T14:40:39.294Z,15.23
2017-12-24T14:43:06.946Z,15.60
2017-12-24T14:45:35.031Z,14.40
2017-12-24T14:48:02.670Z,14.93
2017-12-24T14:50:30.269Z,15.40
2017-12-24T14:52:57.875Z,15.00
2017-12-24T14:55:25.535Z,14.50
2017-12-24T14:57:53.605Z,14.30
2017-12-24T15:00:21.581Z,14.30
2017-12-24T15:02:49.162Z,13.43
2017-12-24T15:05:16.801Z,13.80
2017-12-24T15:07:44.440Z,13.77
2017-12-24T15:10:12.051Z,13.53
2017-12-24T15:12:39.991Z,13.77
2017-12-24T15:15:07.579Z,14.07
2017-12-24T15:17:35.178Z,12.90
2017-12-24T15:20:02.804Z,12.80
2017-12-24T15:22:30.427Z,12.53
2017-12-24T15:24:58.120Z,13.70
2017-12-24T15:27:25.867Z,14.10
2017-12-24T15:29:53.468Z,13.13
2017-12-24T15:32:21.096Z,13.73
2017-12-24T15:34:48.730Z,12.87
2017-12-24T15:37:16.345Z,13.13
2017-12-24T15:39:43.932Z,13.03
2017-12-24T15:42:11.563Z,13.13
2017-12-24T15:44:39.158Z,13.50
2017-12-24T15:47:07.066Z,12.37
2017-12-24T15:49:34.689Z,12.00
2017-12-24T15:52:02.275Z,12.40
2017-12-24T15:54:29.935Z,12.60
2017-12-24T15:56:57.551Z,12.50
2017-12-24T15:59:25.188Z,12.37
2017-12-24T16:01:52.809Z,11.70
2017-12-24T16:04:20.403Z,12.33
2017-12-24T16:06:48.111Z,12.63
2017-12-24T16:09:15.707Z,12.03
2017-12-24T16:11:43.292Z,12.13
2017-12-24T16:14:11.261Z,11.90
2017-12-24T16:16:38.878Z,11.50
2017-12-24T16:19:06.515Z,11.90
2017-12-24T16:21:34.112Z,12.10
2017-12-24T16:24:01.708Z,11.90
2017-12-24T16:26:29.319Z,12.10
2017-12-24T16:28:56.925Z,11.40
2017-12-24T16:31:24.556Z,11.23
2017-12-24T16:33:52.198Z,11.67
2017-12-24T16:36:19.776Z,11.67
2017-12-24T16:38:47.473Z,10.50
2017-12-24T16:41:15.121Z,10.93
2017-12-24T16:43:42.768Z,11.33
2017-12-24T16:46:10.403Z,10.70
2017-12-24T16:48:38.012Z,11.03
2017-12-24T16:51:05.904Z,10.77
2017-12-24T16:53:33.508Z,10.70
2017-12-24T16:56:01.145Z,9.87
2017-12-24T16:58:28.735Z,10.30
2017-12-24T17:00:56.657Z,10.20
2017-12-24T17:03:24.293Z,9.80
2017-12-24T17:05:51.897Z,10.00
2017-12-24T17:08:19.531Z,10.23
2017-12-24T17:10:47.135Z,10.03
2017-12-24T17:13:14.757Z,10.20
2017-12-24T17:15:42.372Z,10.80
2017-12-24T17:18:10.401Z,10.37
2017-12-24T17:20:38.034Z,10.00
2017-12-24T17:23:05.621Z,10.07
2017-12-24T17:25:33.236Z,10.03
2017-12-24T17:28:01.155Z,9.40
2017-12-24T17:30:29.855Z,9.60
2017-12-24T17:32:57.501Z,9.63
2017-12-24T17:35:25.085Z,9.30
2017-12-24T17:37:52.662Z,10.00
2017-12-24T17:40:20.296Z,9.70
2017-12-24T17:42:47.912Z,9.83
2017-12-24T17:45:15.536Z,9.60
2017-12-24T17:47:43.221Z,10.07
2017-12-24T17:50:10.808Z,9.87
2017-12-24T17:52:38.444Z,9.43
2017-12-24T17:55:06.062Z,9.73
2017-12-24T17:57:34.032Z,9.83
2017-12-24T18:00:01.899Z,9.70
2017-12-24T18:02:29.764Z,9.20
2017-12-24T18:04:57.387Z,9.70
2017-12-24T18:07:24.970Z,9.60
2017-12-24T18:09:52.860Z,10.10
2017-12-24T18:12:20.444Z,9.83
2017-12-24T18:14:48.036Z,9.70
2017-12-24T18:17:15.646Z,10.10
2017-12-24T18:19:43.477Z,10.30
2017-12-24T18:22:11.104Z,9.67
2017-12-24T18:24:38.700Z,10.10
2017-12-24T18:27:06.283Z,9.67
2017-12-24T18:29:33.934Z,10.23
2017-12-24T18:32:01.587Z,9.90
2017-12-24T18:34:29.226Z,10.40
2017-12-24T18:36:56.949Z,10.10
2017-12-24T18:39:24.548Z,10.20
2017-12-24T18:41:52.156Z,10.60
2017-12-24T18:44:20.245Z,10.63
2017-12-24T18:46:47.877Z,11.20
2017-12-24T18:49:15.620Z,10.43
2017-12-24T18:51:43.541Z,10.27
2017-12-24T18:54:11.156Z,10.43
2017-12-24T18:56:38.750Z,10.87
2017-12-24T18:59:06.395Z,11.20
2017-12-24T19:01:35.366Z,11.10
2017-12-24T19:04:03.507Z,11.77
2017-12-24T19:06:31.190Z,11.40
2017-12-24T19:08:58.846Z,11.30
2017-12-24T19:11:26.602Z,10.97
2017-12-24T19:13:54.224Z,11.30
2017-12-24T19:16:21.828Z,11.00
2017-12-24T19:18:49.440Z,10.90
2017-12-24T19:21:17.044Z,11.30
2017-12-24T19:23:44.664Z,11.77
2017-12-24T19:26:12.264Z,12.80
2017-12-24T19:28:40.133Z,12.00
2017-12-24T19:31:07.747Z,11.90
2017-12-24T19:33:35.667Z,12.57
2017-12-24T19:36:03.392Z,12.67
2017-12-24T19:38:30.989Z,12.43
2017-12-24T19:40:58.591Z,12.50
2017-12-24T19:43:26.209Z,12.73
2017-12-24T19:45:53.814Z,12.70
2017-12-24T19:48:21.740Z,13.30
2017-12-24T19:50:49.334Z,12.97
2017-12-24T19:53:17.048Z,14.00
2017-12-24T19:55:44.661Z,13.07
2017-12-24T19:58:12.284Z,13.53
2017-12-24T20:00:40.166Z,20.60
2017-12-24T20:03:08.032Z,13.83
2017-12-24T20:05:35.695Z,12.90
2017-12-24T20:08:03.308Z,14.20
2017-12-24T20:10:30.897Z,13.90
2017-12-24T20:12:58.543Z,14.17
2017-12-24T20:15:26.366Z,13.33
2017-12-24T20:17:53.968Z,14.20
2017-12-24T20:20:21.875Z,15.20
2017-12-24T20:22:49.537Z,14.03
2017-12-24T20:25:17.176Z,14.10
2017-12-24T20:27:44.772Z,14.47
2017-12-24T20:30:12.624Z,14.23
2017-12-24T20:32:40.272Z,14.10
2017-12-24T20:35:07.860Z,14.50
2017-12-24T20:37:35.508Z,14.13
2017-12-24T20:40:03.102Z,14.37
2017-12-24T20:42:30.698Z,14.33
2017-12-24T20:44:58.316Z,14.87
2017-12-24T20:47:25.920Z,15.67
2017-12-24T20:49:53.548Z,15.03
2017-12-24T20:52:21.159Z,15.00
2017-12-24T20:54:48.749Z,15.50
2017-12-24T20:57:16.386Z,15.40
2017-12-24T20:59:44.029Z,14.50
2017-12-24T21:02:11.671Z,15.00
2017-12-24T21:04:39.269Z,15.43
2017-12-24T21:07:06.902Z,16.97
2017-12-24T21:09:34.824Z,16.37
2017-12-24T21:12:02.501Z,15.97
2017-12-24T21:14:30.126Z,16.80
2017-12-24T21:16:57.725Z,16.30
2017-12-24T21:19:25.604Z,16.53
2017-12-24T21:21:53.230Z,16.70
2017-12-24T21:24:20.875Z,17.03
2017-12-24T21:26:48.533Z,17.20
2017-12-24T21:29:16.123Z,16.07
2017-12-24T21:31:43.704Z,16.37
2017-12-24T21:34:11.344Z,16.17
2017-12-24T21:36:38.970Z,16.20
2017-12-24T21:39:06.638Z,15.97
2017-12-24T21:41:34.234Z,17.17
2017-12-24T21:44:01.855Z,15.23
2017-12-24T21:46:29.498Z,15.00
2017-12-24T21:48:57.103Z,15.63
2017-12-24T21:51:24.704Z,16.10
2017-12-24T21:53:52.330Z,15.30
2017-12-24T21:56:19.927Z,16.07
2017-12-24T21:58:47.514Z,15.80
2017-12-24T22:01:15.141Z,15.17
2017-12-24T22:03:42.737Z,14.70
2017-12-24T22:06:10.371Z,14.80
2017-12-24T22:08:37.977Z,15.60
2017-12-24T22:11:05.570Z,15.23
2017-12-24T22:13:33.184Z,15.17
2017-12-24T22:16:00.830Z,14.47
2017-12-24T22:18:28.493Z,15.13
2017-12-24T22:20:56.087Z,15.07
2017-12-24T22:23:23.686Z,14.10
2017-12-24T22:25:51.667Z,15.03
2017-12-24T22:28:19.266Z,15.07
2017-12-24T22:30:46.909Z,15.80
2017-12-24T22:33:14.534Z,14.97
2017-12-24T22:35:42.136Z,15.27
2017-12-24T22:38:09.752Z,15.27
2017-12-24T22:40:37.374Z,14.80
2017-12-24T22:43:05.015Z,15.13
2017-12-24T22:45:32.615Z,14.47
2017-12-24T22:48:00.238Z,14.77
2017-12-24T22:50:27.888Z,14.43
2017-12-24T22:52:55.492Z,14.53
2017-12-24T22:55:23.455Z,13.50
2017-12-24T22:57:51.067Z,14.00
2017-12-24T23:00:18.709Z,14.50
2017-12-24T23:02:46.332Z,13.60
2017-12-24T23:05:13.950Z,14.23
2017-12-24T23:07:41.607Z,14.10
2017-12-24T23:10:09.200Z,14.10
2017-12-24T23:12:36.801Z,14.00
2017-12-24T23:15:04.436Z,13.97
2017-12-24T23:17:32.019Z,14.20
2017-12-24T23:19:59.948Z,14.03
2017-12-24T23:22:27.545Z,14.40
2017-12-24T23:24:55.138Z,14.53
2017-12-24T23:27:22.763Z,14.83
2017-12-24T23:29:50.717Z,13.87
2017-12-24T23:32:18.356Z,13.90
2017-12-24T23:34:45.987Z,13.83
2017-12-24T23:37:13.571Z,13.70
2017-12-24T23:39:41.178Z,14.47
2017-12-24T23:42:09.122Z,13.33
2017-12-24T23:44:36.753Z,13.67
2017-12-24T23:47:04.345Z,13.73
2017-12-24T23:49:31.924Z,13.90
2017-12-24T23:51:59.876Z,13.97
2017-12-24T23:54:27.745Z,14.40
2017-12-24T23:56:55.394Z,13.30
2017-12-24T23:59:22.990Z,12.90
